createdAt,value
2022-11-03T00:02:24.615Z,15
2022-11-03T00:07:36.529Z,15
2022-11-03T00:12:49.422Z,15
2022-11-03T00:23:11.809Z,15
2022-11-03T00:28:24.673Z,15
2022-11-03T00:33:37.439Z,15
2022-11-03T00:43:59.363Z,15
2022-11-03T00:49:11.990Z,15
2022-11-03T00:54:24.540Z,15
2022-11-03T00:59:36.714Z,15
2022-11-03T01:04:48.749Z,15
2022-11-03T01:10:01.899Z,15
2022-11-03T01:15:14.384Z,15
2022-11-03T01:20:26.410Z,15
2022-11-03T01:25:38.509Z,15
2022-11-03T01:36:01.565Z,14
2022-11-03T01:41:13.549Z,14
2022-11-03T01:46:26.329Z,15
2022-11-03T01:56:48.715Z,14
2022-11-03T02:02:01.933Z,15
2022-11-03T02:12:24.618Z,14
2022-11-03T02:17:37.399Z,15
2022-11-03T02:28:00.053Z,14
2022-11-03T02:33:12.102Z,14
2022-11-03T02:38:24.873Z,15
2022-11-03T02:48:47.529Z,14
2022-11-03T02:54:00.094Z,14
2022-11-03T02:59:12.892Z,14
2022-11-03T03:04:25.036Z,14
2022-11-03T03:09:37.064Z,14
2022-11-03T03:14:49.805Z,15
2022-11-03T03:25:12.468Z,14
2022-11-03T03:30:24.435Z,14
2022-11-03T03:35:37.183Z,15
2022-11-03T03:40:50.020Z,14
2022-11-03T03:46:01.933Z,14
2022-11-03T03:51:14.663Z,14
2022-11-03T03:56:27.648Z,14
2022-11-03T04:06:50.273Z,14
2022-11-03T04:12:03.128Z,14
2022-11-03T04:22:25.343Z,14
2022-11-03T04:27:37.366Z,14
2022-11-03T04:32:50.294Z,14
2022-11-03T04:38:03.019Z,14
2022-11-03T04:43:15.457Z,14
2022-11-03T04:48:28.183Z,14
2022-11-03T04:53:40.883Z,14
2022-11-03T04:58:52.888Z,14
2022-11-03T05:04:04.973Z,14
2022-11-03T05:09:17.805Z,14
2022-11-03T05:14:30.428Z,14
2022-11-03T05:19:42.503Z,14
2022-11-03T05:24:54.565Z,14
2022-11-03T05:30:07.426Z,14
2022-11-03T05:40:30.013Z,14
2022-11-03T05:45:42.139Z,14
2022-11-03T05:50:54.835Z,14
2022-11-03T05:56:07.463Z,14
2022-11-03T06:01:20.489Z,14
2022-11-03T06:06:33.196Z,14
2022-11-03T06:11:44.954Z,14
2022-11-03T06:16:57.810Z,14
2022-11-03T06:22:09.794Z,14
2022-11-03T06:27:21.853Z,14
2022-11-03T06:32:34.115Z,15
2022-11-03T06:37:46.983Z,15
2022-11-03T06:42:59.714Z,14
2022-11-03T06:48:12.713Z,14
2022-11-03T06:53:25.612Z,14
2022-11-03T06:58:38.425Z,14
2022-11-03T07:03:51.265Z,14
2022-11-03T07:09:04.325Z,14
2022-11-03T07:14:17.122Z,14
2022-11-03T07:19:29.893Z,14
2022-11-03T07:24:42.015Z,14
2022-11-03T07:29:54.268Z,15
2022-11-03T07:35:06.524Z,15
2022-11-03T07:40:18.622Z,15
2022-11-03T07:45:30.902Z,15
2022-11-03T07:50:43.165Z,15
2022-11-03T07:55:55.934Z,15
2022-11-03T08:01:08.182Z,16
2022-11-03T08:06:20.947Z,16
2022-11-03T08:11:33.142Z,16
2022-11-03T08:16:45.372Z,16
2022-11-03T08:21:57.646Z,16
2022-11-03T08:27:12.249Z,16
2022-11-03T08:32:23.736Z,16
2022-11-03T08:37:36.073Z,16
2022-11-03T08:42:48.237Z,16
2022-11-03T08:48:00.348Z,16
2022-11-03T08:53:12.550Z,16
2022-11-03T08:58:24.695Z,17
2022-11-03T09:03:37.182Z,17
2022-11-03T09:15:34.916Z,17
2022-11-03T09:20:46.548Z,17
2022-11-03T09:25:58.963Z,17
2022-11-03T09:31:11.185Z,17
2022-11-03T09:36:23.556Z,17
2022-11-03T09:41:59.626Z,18
2022-11-03T09:47:08.116Z,18
2022-11-03T09:52:20.460Z,18
2022-11-03T09:57:32.801Z,18
2022-11-03T10:02:45.176Z,18
2022-11-03T10:07:57.541Z,18
2022-11-03T10:13:10.601Z,18
2022-11-03T10:18:22.665Z,19
2022-11-03T10:23:35.165Z,19
2022-11-03T10:28:47.580Z,19
2022-11-03T10:33:59.737Z,19
2022-11-03T10:39:11.887Z,19
2022-11-03T10:44:24.023Z,19
2022-11-03T10:49:44.097Z,19
2022-11-03T10:54:55.339Z,19
2022-11-03T11:00:07.391Z,19
2022-11-03T11:05:19.466Z,19
2022-11-03T11:10:31.718Z,20
2022-11-03T11:15:43.771Z,20
2022-11-03T11:20:55.940Z,20
2022-11-03T11:26:08.259Z,20
2022-11-03T11:31:20.354Z,19
2022-11-03T11:36:32.110Z,19
2022-11-03T11:41:43.988Z,19
2022-11-03T11:46:56.793Z,19
2022-11-03T11:52:15.565Z,20
2022-11-03T11:57:32.855Z,22
2022-11-03T12:02:46.201Z,23
2022-11-03T12:07:59.314Z,24
2022-11-03T12:13:13.733Z,26
2022-11-03T12:28:44.768Z,23
2022-11-03T12:33:56.686Z,24
2022-11-03T12:39:11.689Z,27
2022-11-03T12:44:26.521Z,28
2022-11-03T12:49:39.967Z,28
2022-11-03T13:05:12.199Z,25
2022-11-03T13:10:24.119Z,25
2022-11-03T13:15:37.386Z,27
2022-11-03T13:20:51.097Z,28
2022-11-03T13:36:24.436Z,26
2022-11-03T13:41:36.637Z,27
2022-11-03T13:46:48.787Z,27
2022-11-03T13:52:00.641Z,27
2022-11-03T14:23:02.469Z,21
2022-11-03T14:28:26.516Z,21
2022-11-03T14:33:36.209Z,21
2022-11-03T14:38:50.957Z,20
2022-11-03T14:44:02.646Z,20
2022-11-03T14:49:14.841Z,20
2022-11-03T14:54:27.499Z,20
2022-11-03T14:59:39.946Z,20
2022-11-03T15:04:52.407Z,21
2022-11-03T15:10:05.040Z,20
2022-11-03T15:15:17.540Z,20
2022-11-03T15:20:29.871Z,20
2022-11-03T15:25:42.412Z,20
2022-11-03T15:30:54.589Z,20
2022-11-03T15:36:06.714Z,20
2022-11-03T15:41:19.297Z,20
2022-11-03T15:46:31.769Z,19
2022-11-03T15:51:44.133Z,19
2022-11-03T15:56:56.358Z,19
2022-11-03T16:02:41.979Z,19
2022-11-03T16:07:50.390Z,19
2022-11-03T16:13:20.962Z,19
2022-11-03T16:18:29.889Z,19
2022-11-03T16:23:42.060Z,19
2022-11-03T16:28:54.350Z,18
2022-11-03T16:34:06.715Z,18
2022-11-03T16:39:18.881Z,18
2022-11-03T16:44:31.254Z,18
2022-11-03T16:49:43.741Z,18
2022-11-03T16:54:56.175Z,18
2022-11-03T17:00:08.070Z,18
2022-11-03T17:05:20.433Z,18
2022-11-03T17:10:32.762Z,18
2022-11-03T17:15:45.190Z,18
2022-11-03T17:20:57.720Z,18
2022-11-03T17:26:09.932Z,18
2022-11-03T17:31:23.101Z,17
2022-11-03T17:36:35.304Z,17
2022-11-03T17:41:47.675Z,17
2022-11-03T17:46:59.726Z,17
2022-11-03T17:52:12.413Z,17
2022-11-03T17:57:24.745Z,17
2022-11-03T18:02:37.453Z,17
2022-11-03T18:07:55.028Z,17
2022-11-03T18:13:10.906Z,17
2022-11-03T18:18:23.134Z,17
2022-11-03T18:23:35.492Z,17
2022-11-03T18:28:47.862Z,17
2022-11-03T18:33:59.763Z,17
2022-11-03T18:39:11.658Z,17
2022-11-03T18:44:23.687Z,17
2022-11-03T18:49:35.898Z,17
2022-11-03T18:54:48.116Z,17
2022-11-03T19:00:00.117Z,17
2022-11-03T19:05:14.287Z,17
2022-11-03T19:10:25.633Z,16
2022-11-03T19:15:37.538Z,16
2022-11-03T19:20:49.567Z,16
2022-11-03T19:26:01.554Z,16
2022-11-03T19:31:14.003Z,16
2022-11-03T19:36:26.057Z,16
2022-11-03T19:41:38.032Z,16
2022-11-03T19:46:50.054Z,16
2022-11-03T19:52:01.876Z,16
2022-11-03T19:57:13.798Z,16
2022-11-03T20:02:26.310Z,16
2022-11-03T20:07:38.300Z,16
2022-11-03T20:12:50.488Z,16
2022-11-03T20:18:02.346Z,16
2022-11-03T20:23:14.211Z,16
2022-11-03T20:28:26.365Z,16
2022-11-03T20:33:46.095Z,16
2022-11-03T20:38:59.790Z,16
2022-11-03T20:44:11.879Z,16
2022-11-03T20:49:24.038Z,16
2022-11-03T20:54:36.078Z,16
2022-11-03T20:59:47.764Z,16
2022-11-03T21:04:59.863Z,16
2022-11-03T21:10:17.959Z,16
2022-11-03T21:15:35.055Z,16
2022-11-03T21:20:46.681Z,16
2022-11-03T21:25:58.303Z,16
2022-11-03T21:31:10.340Z,16
2022-11-03T21:36:22.252Z,16
2022-11-03T21:41:34.293Z,16
2022-11-03T21:46:46.141Z,16
2022-11-03T21:51:58.007Z,16
2022-11-03T21:57:10.063Z,16
2022-11-03T22:02:22.349Z,16
2022-11-03T22:07:39.349Z,16
2022-11-03T22:12:51.443Z,16
2022-11-03T22:18:03.195Z,16
2022-11-03T22:23:15.115Z,16
2022-11-03T22:28:27.078Z,16
2022-11-03T22:33:39.454Z,16
2022-11-03T22:38:51.623Z,16
2022-11-03T22:44:10.357Z,16
2022-11-03T22:49:26.776Z,17
2022-11-03T22:54:39.017Z,17
2022-11-03T22:59:51.973Z,17
2022-11-03T23:15:23.697Z,15
2022-11-03T23:20:36.039Z,15
2022-11-03T23:25:48.304Z,16
2022-11-03T23:41:21.919Z,16
